Detall de PIREP

Printer-friendly versionPDF version

[2014/01/24 21:18:00]
Flight IATA:CT2307
Pilot Number:044
Company ICAO:CAT
Aircraft Type:AT72/F
PAX:36
Departing Airport: LIRP
Destination Airport: LIEA
Alternate Airport:LIEO
Online: VATSIM
Route:ELB Q125 ROMPO L5 MINKA
Flight Level:F170
No Slew and time accel
No pause
Crash detect
Detect pilot in Cockpit between each 30 and 45 minutes
21:18 Zero fuel Weight: 39665 Lbs, Fuel Weight: 3335 Lbs
21:18 VATSIM:LIRP 242045Z 36003KT 9999 SCT060 07/05 Q1004 NOSIG
21:18 VATSIM:LIEA 242050Z 33010G22KT 9999 -RA SCT025 SCT035 10/05 Q1006
21:18 VOICE CATALONIAN
21:19 Parking Brakes off
21:30 Take-off
21:30 Take off Weight: 42890 Lbs
21:30 Wind: 010º @ 006 Knots Heading: 216º
21:30 POS N43º 40´ 58´´ E010º 23´ 36´´
21:30 Flaps:1 at 124 Knots
21:30 Gear Up: 140 Knots
21:30 Flaps:0 at 144 Knots
21:38 TOC
21:38 Fuel Weight: 2903 Lb
21:45 Wind:307º@013 Knots Heading: 197º Ground Speed: 290 Knots Altitude 16699 ft
22:00 Wind:300º@018 Knots Heading: 197º Ground Speed: 288 Knots Altitude 16725 ft
22:07 TOD
22:07 Fuel Weight: 1998 Lb
22:15 Wind:268º@014 Knots Heading: 248º Ground Speed: 253 Knots Altitude 8753 ft
22:23 Flaps:1 at 146 Knots
22:30 Wind:312º@009 Knots Heading: 026º Ground Speed: 129 Knots Altitude 2398 ft
22:30 Flaps:2 at 142 Knots
22:31 Gear Down: 130 Knots
22:34 TouchDown:Rate -286 ft/min Speed: 98 Knots
22:34 VATSIM:LIEA 242220Z 31009KT 9999 SCT035 10/04 Q1006
22:34 Land
22:34 Wind:310º@009 Knots
22:34 Heading: 025º
22:34 Flight Duration: 01:04
22:34 Landing Weight: 41271 Lbs
22:34 POS N40º 38´ 14´´ E008º 17´ 38´´
22:40 Parking brakes on
22:40 Block to Block Duration: 01:21
22:40 Final Fuel: 1569 Lbls
22:40 Spent Fuel: 1765 Lbls
22:40 Flight Length: 253 NM
22:40 TOD Land Length: 88 NM

Exportar CSV

Powered by Drupal - Modified by Danger4k